createdAt,value
2023-02-02T00:00:20.841Z,3.22
2023-02-02T00:02:47.149Z,3.01
2023-02-02T00:05:13.405Z,3.24
2023-02-02T00:07:39.659Z,3.32
2023-02-02T00:10:05.922Z,3.26
2023-02-02T00:12:32.166Z,3.25
2023-02-02T00:14:58.419Z,3.28
2023-02-02T00:17:24.691Z,3.21
2023-02-02T00:19:50.934Z,3.41
2023-02-02T00:22:17.185Z,3.19
2023-02-02T00:24:43.448Z,3.19
2023-02-02T00:27:09.690Z,3.32
2023-02-02T00:29:35.937Z,3.39
2023-02-02T00:32:02.197Z,3.34
2023-02-02T00:34:28.450Z,3.28
2023-02-02T00:36:54.701Z,3.70
2023-02-02T00:39:20.959Z,3.52
2023-02-02T00:41:47.229Z,3.51
2023-02-02T00:44:13.481Z,3.89
2023-02-02T00:46:39.750Z,4.14
2023-02-02T00:49:05.992Z,3.98
2023-02-02T00:51:32.236Z,3.97
2023-02-02T00:53:58.489Z,3.92
2023-02-02T00:56:24.745Z,3.85
2023-02-02T00:58:50.988Z,3.87
2023-02-02T01:01:17.283Z,4.06
2023-02-02T01:03:43.664Z,4.10
2023-02-02T01:06:09.900Z,4.02
2023-02-02T01:08:36.145Z,3.98
2023-02-02T01:11:02.404Z,4.08
2023-02-02T01:13:28.655Z,4.22
2023-02-02T01:15:54.930Z,4.33
2023-02-02T01:18:21.167Z,4.11
2023-02-02T01:20:47.415Z,4.19
2023-02-02T01:23:13.686Z,4.00
2023-02-02T01:25:39.930Z,4.02
2023-02-02T01:28:06.189Z,4.46
2023-02-02T01:30:32.474Z,4.30
2023-02-02T01:32:58.717Z,4.17
2023-02-02T01:35:25.282Z,4.35
2023-02-02T01:37:51.770Z,4.41
2023-02-02T01:40:18.017Z,4.23
2023-02-02T01:42:44.275Z,4.24
2023-02-02T01:45:10.538Z,4.23
2023-02-02T01:47:36.784Z,4.32
2023-02-02T01:50:03.041Z,4.09
2023-02-02T01:52:29.306Z,4.11
2023-02-02T01:54:55.653Z,4.28
2023-02-02T01:57:21.911Z,4.22
2023-02-02T01:59:48.150Z,4.29
2023-02-02T02:02:14.527Z,4.22
2023-02-02T02:04:40.820Z,3.92
2023-02-02T02:07:07.071Z,4.08
2023-02-02T02:09:33.317Z,4.41
2023-02-02T02:11:59.564Z,4.41
2023-02-02T02:14:25.819Z,3.92
2023-02-02T02:16:52.155Z,3.94
2023-02-02T02:19:18.459Z,4.14
2023-02-02T02:21:44.713Z,4.12
2023-02-02T02:24:10.978Z,4.51
2023-02-02T02:26:37.260Z,4.25
2023-02-02T02:29:03.573Z,4.68
2023-02-02T02:31:29.932Z,4.62
2023-02-02T02:33:56.226Z,4.46
2023-02-02T02:36:22.472Z,4.32
2023-02-02T02:38:48.730Z,4.46
2023-02-02T02:41:14.972Z,4.75
2023-02-02T02:43:41.226Z,4.42
2023-02-02T02:46:07.497Z,4.40
2023-02-02T02:48:33.771Z,4.43
2023-02-02T02:51:00.030Z,4.24
2023-02-02T02:53:26.280Z,4.07
2023-02-02T02:55:52.544Z,3.72
2023-02-02T02:58:18.781Z,3.43
2023-02-02T03:00:45.032Z,2.92
2023-02-02T03:03:11.281Z,2.97
2023-02-02T03:05:37.552Z,3.15
2023-02-02T03:08:03.803Z,3.01
2023-02-02T03:10:30.040Z,3.57
2023-02-02T03:12:56.317Z,3.50
2023-02-02T03:15:22.710Z,3.92
2023-02-02T03:17:49.051Z,3.54
2023-02-02T03:20:15.284Z,3.82
2023-02-02T03:22:41.540Z,3.77
2023-02-02T03:25:07.827Z,3.56
2023-02-02T03:27:34.075Z,3.72
2023-02-02T03:30:00.317Z,3.76
2023-02-02T03:32:26.578Z,3.79
2023-02-02T03:34:52.823Z,3.70
2023-02-02T03:37:19.084Z,3.55
2023-02-02T03:39:45.324Z,3.49
2023-02-02T03:42:11.558Z,3.57
2023-02-02T03:44:37.800Z,3.73
2023-02-02T03:47:04.047Z,3.46
2023-02-02T03:49:30.315Z,3.38
2023-02-02T03:51:56.552Z,3.48
2023-02-02T03:54:22.804Z,3.78
2023-02-02T03:56:49.063Z,3.89
2023-02-02T03:59:15.322Z,3.71
2023-02-02T04:01:41.742Z,3.78
2023-02-02T04:04:08.005Z,3.87
2023-02-02T04:06:34.258Z,4.07
2023-02-02T04:09:00.594Z,4.29
2023-02-02T04:11:26.830Z,4.17
2023-02-02T04:13:53.089Z,4.50
2023-02-02T04:16:19.394Z,4.37
2023-02-02T04:18:45.640Z,4.67
2023-02-02T04:21:11.871Z,4.85
2023-02-02T04:23:38.123Z,4.78
2023-02-02T04:26:04.383Z,4.89
2023-02-02T04:28:30.623Z,4.67
2023-02-02T04:30:56.915Z,4.71
2023-02-02T04:33:23.217Z,4.73
2023-02-02T04:35:49.469Z,4.91
2023-02-02T04:38:15.715Z,4.58
2023-02-02T04:40:41.974Z,4.76
2023-02-02T04:43:08.224Z,4.88
2023-02-02T04:45:34.478Z,4.81
2023-02-02T04:48:00.757Z,4.95
2023-02-02T04:50:27.014Z,4.99
2023-02-02T04:52:53.287Z,5.22
2023-02-02T04:55:19.549Z,5.37
2023-02-02T04:57:45.808Z,5.90
2023-02-02T05:00:12.071Z,5.93
2023-02-02T05:02:38.329Z,5.96
2023-02-02T05:05:04.677Z,5.95
2023-02-02T05:07:30.954Z,6.20
2023-02-02T05:09:57.219Z,5.69
2023-02-02T05:12:23.492Z,5.90
2023-02-02T05:14:49.782Z,5.98
2023-02-02T05:17:16.016Z,6.44
2023-02-02T05:19:42.274Z,6.41
2023-02-02T05:22:08.541Z,6.40
2023-02-02T05:24:34.786Z,6.25
2023-02-02T05:27:01.050Z,6.39
2023-02-02T05:29:27.315Z,6.38
2023-02-02T05:31:53.582Z,6.38
2023-02-02T05:34:19.858Z,6.31
2023-02-02T05:36:46.105Z,6.41
2023-02-02T05:39:12.340Z,6.31
2023-02-02T05:41:38.619Z,6.76
2023-02-02T05:44:04.881Z,6.43
2023-02-02T05:46:31.147Z,6.63
2023-02-02T05:48:57.409Z,6.55
2023-02-02T05:51:23.640Z,6.06
2023-02-02T05:53:49.899Z,6.23
2023-02-02T05:56:16.144Z,6.29
2023-02-02T05:58:42.421Z,6.64
2023-02-02T06:01:08.678Z,6.58
2023-02-02T06:03:34.982Z,6.32
2023-02-02T06:06:01.294Z,6.04
2023-02-02T06:08:27.637Z,6.53
2023-02-02T06:10:53.903Z,6.87
2023-02-02T06:13:20.148Z,6.69
2023-02-02T06:15:46.401Z,7.07
2023-02-02T06:18:12.655Z,6.84
2023-02-02T06:20:38.917Z,7.19
2023-02-02T06:23:05.167Z,7.09
2023-02-02T06:25:31.447Z,7.15
2023-02-02T06:27:57.714Z,7.13
2023-02-02T06:30:23.967Z,7.40
2023-02-02T06:32:50.224Z,7.33
2023-02-02T06:35:16.469Z,7.25
2023-02-02T06:37:42.711Z,7.18
2023-02-02T06:40:08.983Z,7.23
2023-02-02T06:42:35.244Z,7.33
2023-02-02T06:45:01.498Z,7.11
2023-02-02T06:47:27.745Z,7.48
2023-02-02T06:49:53.989Z,7.88
2023-02-02T06:52:20.227Z,7.34
2023-02-02T06:54:46.491Z,7.35
2023-02-02T06:57:12.778Z,6.99
2023-02-02T06:59:39.026Z,7.05
2023-02-02T07:02:05.265Z,6.47
2023-02-02T07:04:31.514Z,6.54
2023-02-02T07:06:57.787Z,6.56
2023-02-02T07:09:24.056Z,6.36
2023-02-02T07:11:50.300Z,6.35
2023-02-02T07:14:16.581Z,6.50
2023-02-02T07:16:42.831Z,6.26
2023-02-02T07:19:09.066Z,6.19
2023-02-02T07:21:35.779Z,6.18
2023-02-02T07:24:02.392Z,5.78
2023-02-02T07:26:28.642Z,5.97
2023-02-02T07:28:54.902Z,5.82
2023-02-02T07:31:21.199Z,5.78
2023-02-02T07:33:47.447Z,5.83
2023-02-02T07:36:13.703Z,5.70
2023-02-02T07:38:39.936Z,5.79
2023-02-02T07:41:06.177Z,6.09
2023-02-02T07:43:32.430Z,5.90
2023-02-02T07:45:58.706Z,6.32
2023-02-02T07:48:24.950Z,6.76
2023-02-02T07:50:51.211Z,7.04
2023-02-02T07:53:17.470Z,6.98
2023-02-02T07:55:43.817Z,7.08
2023-02-02T07:58:10.108Z,6.69
2023-02-02T08:00:36.371Z,6.35
2023-02-02T08:03:02.671Z,6.44
2023-02-02T08:05:28.956Z,6.56
2023-02-02T08:07:55.219Z,6.81
2023-02-02T08:10:21.481Z,6.82
2023-02-02T08:12:47.734Z,6.94
2023-02-02T08:15:14.015Z,6.33
2023-02-02T08:17:40.262Z,6.29
2023-02-02T08:20:06.510Z,5.98
2023-02-02T08:22:32.750Z,5.92
2023-02-02T08:24:58.990Z,5.86
2023-02-02T08:27:25.232Z,5.50
2023-02-02T08:29:51.501Z,5.87
2023-02-02T08:32:17.785Z,5.83
2023-02-02T08:34:44.038Z,6.31
2023-02-02T08:37:10.302Z,7.00
2023-02-02T08:39:36.563Z,7.01
2023-02-02T08:42:02.813Z,7.26
2023-02-02T08:45:00.436Z,7.18
2023-02-02T08:47:15.297Z,6.89
2023-02-02T08:49:41.573Z,7.17
2023-02-02T08:52:07.816Z,6.54
2023-02-02T08:54:34.077Z,6.39
2023-02-02T08:57:00.346Z,6.36
2023-02-02T08:59:26.621Z,6.26
2023-02-02T09:01:52.928Z,6.46
2023-02-02T09:04:19.219Z,6.38
2023-02-02T09:06:45.480Z,6.10
2023-02-02T09:09:11.753Z,5.78
2023-02-02T09:11:37.987Z,5.55
2023-02-02T09:14:04.233Z,5.44
2023-02-02T09:16:30.561Z,5.26
2023-02-02T09:18:56.895Z,5.51
2023-02-02T09:21:23.135Z,5.39
2023-02-02T09:23:49.468Z,5.88
2023-02-02T09:26:15.734Z,6.58
2023-02-02T09:28:41.991Z,6.88
2023-02-02T09:31:08.308Z,6.82
2023-02-02T09:33:34.633Z,6.54
2023-02-02T09:36:00.941Z,6.99
2023-02-02T09:38:27.209Z,6.80
2023-02-02T09:40:53.481Z,6.56
2023-02-02T09:43:19.760Z,5.63
2023-02-02T09:45:46.007Z,4.86
2023-02-02T09:48:12.288Z,4.90
2023-02-02T09:50:38.553Z,4.85
2023-02-02T09:53:06.401Z,4.70
2023-02-02T09:55:33.999Z,6.01
2023-02-02T09:58:00.244Z,5.83
2023-02-02T10:00:26.497Z,5.36
2023-02-02T10:02:52.763Z,4.99
2023-02-02T10:05:19.004Z,3.90
2023-02-02T10:07:45.245Z,4.04
2023-02-02T10:10:11.492Z,4.00
2023-02-02T10:12:37.745Z,4.43
2023-02-02T10:15:04.044Z,4.72
2023-02-02T10:17:30.343Z,4.59
2023-02-02T10:19:56.600Z,4.66
2023-02-02T10:22:22.869Z,4.97
2023-02-02T10:24:49.115Z,4.78
2023-02-02T10:27:15.355Z,4.22
2023-02-02T10:29:48.915Z,4.12
2023-02-02T10:32:15.660Z,3.88
2023-02-02T10:34:42.014Z,3.50
2023-02-02T10:37:08.269Z,2.98
2023-02-02T10:39:34.545Z,2.86
2023-02-02T10:42:00.901Z,2.91
2023-02-02T10:44:27.145Z,2.40
2023-02-02T10:46:53.401Z,2.30
2023-02-02T10:49:19.658Z,2.40
2023-02-02T10:51:45.897Z,3.05
2023-02-02T10:54:12.157Z,3.92
2023-02-02T10:56:38.407Z,3.39
2023-02-02T10:59:04.758Z,2.75
2023-02-02T11:01:31.060Z,2.55
2023-02-02T11:03:57.332Z,2.26
2023-02-02T11:06:23.602Z,2.17
2023-02-02T11:08:49.860Z,2.85
2023-02-02T11:11:16.127Z,2.10
2023-02-02T11:13:42.428Z,1.80
2023-02-02T11:16:08.827Z,2.09
2023-02-02T11:18:35.118Z,1.87
2023-02-02T11:21:01.523Z,1.94
2023-02-02T11:23:27.824Z,2.22
2023-02-02T11:25:54.059Z,2.60
2023-02-02T11:28:20.307Z,2.48
2023-02-02T11:30:46.578Z,2.23
2023-02-02T11:33:12.850Z,1.79
2023-02-02T11:35:39.101Z,2.12
2023-02-02T11:38:05.349Z,2.41
2023-02-02T11:40:31.611Z,2.26
2023-02-02T11:42:57.876Z,2.06
2023-02-02T11:45:24.200Z,1.66
2023-02-02T11:47:50.451Z,1.34
2023-02-02T11:50:16.735Z,1.24
2023-02-02T11:52:43.002Z,1.29
2023-02-02T11:55:09.249Z,1.34
2023-02-02T11:57:35.498Z,1.24
2023-02-02T12:00:01.746Z,1.26
2023-02-02T12:02:28.003Z,1.22
2023-02-02T12:04:54.286Z,1.31
2023-02-02T12:07:20.525Z,1.17
2023-02-02T12:09:46.785Z,1.11
2023-02-02T12:12:13.065Z,0.86
2023-02-02T12:14:39.324Z,1.19
2023-02-02T12:17:05.569Z,1.04
2023-02-02T12:19:31.833Z,1.06
2023-02-02T12:21:58.071Z,1.00
2023-02-02T12:24:24.324Z,0.83
2023-02-02T12:26:50.684Z,1.10
2023-02-02T12:29:16.966Z,1.19
2023-02-02T12:31:43.235Z,1.03
2023-02-02T12:34:11.785Z,1.33
2023-02-02T12:36:38.176Z,1.21
2023-02-02T12:39:04.406Z,1.17
2023-02-02T12:41:30.666Z,1.32
2023-02-02T12:43:56.919Z,1.17
2023-02-02T12:46:23.180Z,1.22
2023-02-02T12:48:49.432Z,1.15
2023-02-02T12:51:15.678Z,1.13
2023-02-02T12:53:41.944Z,1.04
2023-02-02T12:56:08.187Z,0.98
2023-02-02T12:58:34.440Z,1.09
2023-02-02T13:01:00.788Z,1.27
2023-02-02T13:03:27.079Z,1.18
2023-02-02T13:05:53.327Z,0.96
2023-02-02T13:08:19.587Z,1.13
2023-02-02T13:10:45.847Z,1.01
2023-02-02T13:13:12.091Z,0.92
2023-02-02T13:15:38.323Z,0.84
2023-02-02T13:18:04.568Z,0.97
2023-02-02T13:20:30.845Z,1.07
2023-02-02T13:22:57.078Z,1.21
2023-02-02T13:25:23.573Z,1.24
2023-02-02T13:27:50.123Z,1.07
2023-02-02T13:30:16.396Z,1.27
2023-02-02T13:32:42.628Z,1.11
2023-02-02T13:35:08.881Z,1.14
2023-02-02T13:37:35.171Z,1.09
2023-02-02T13:40:01.443Z,1.10
2023-02-02T13:42:27.704Z,1.01
2023-02-02T13:44:53.950Z,1.05
2023-02-02T13:47:20.300Z,1.45
2023-02-02T13:49:46.553Z,1.48
2023-02-02T13:52:12.811Z,1.03
2023-02-02T13:54:39.065Z,1.13
2023-02-02T13:57:05.325Z,0.95
2023-02-02T13:59:31.564Z,0.93
2023-02-02T14:01:57.826Z,0.98
2023-02-02T14:04:24.090Z,1.16
2023-02-02T14:06:50.318Z,1.00
2023-02-02T14:09:16.564Z,0.86
2023-02-02T14:11:42.816Z,0.75
2023-02-02T14:14:09.070Z,0.59
2023-02-02T14:16:35.312Z,0.66
2023-02-02T14:19:01.576Z,0.56
2023-02-02T14:21:27.835Z,0.68
2023-02-02T14:23:54.117Z,0.57
2023-02-02T14:26:20.561Z,0.64
2023-02-02T14:28:46.852Z,0.54
2023-02-02T14:31:13.229Z,0.69
2023-02-02T14:33:39.508Z,0.60
2023-02-02T14:36:06.795Z,0.60
2023-02-02T14:38:33.081Z,0.61
2023-02-02T14:40:59.345Z,0.71
2023-02-02T14:43:25.600Z,0.58
2023-02-02T14:45:51.911Z,0.61
2023-02-02T14:48:18.194Z,0.70
2023-02-02T14:50:44.439Z,0.82
2023-02-02T14:53:10.701Z,0.73
2023-02-02T14:55:36.969Z,0.64
2023-02-02T14:58:03.199Z,0.61
2023-02-02T15:00:29.443Z,0.63
2023-02-02T15:02:55.739Z,0.76
2023-02-02T15:05:22.005Z,0.78
2023-02-02T15:07:48.259Z,0.60
2023-02-02T15:10:14.505Z,0.86
2023-02-02T15:12:40.784Z,1.40
2023-02-02T15:15:07.044Z,1.56
2023-02-02T15:17:33.325Z,1.41
2023-02-02T15:19:59.570Z,1.60
2023-02-02T15:22:25.825Z,1.55
2023-02-02T15:24:52.095Z,1.96
2023-02-02T15:27:18.350Z,1.97
2023-02-02T15:29:44.622Z,1.88
2023-02-02T15:32:10.876Z,1.66
2023-02-02T15:34:37.112Z,1.66
2023-02-02T15:37:03.357Z,1.70
2023-02-02T15:39:29.608Z,1.74
2023-02-02T15:41:55.861Z,1.59
2023-02-02T15:44:22.101Z,1.61
2023-02-02T15:46:48.444Z,1.42
2023-02-02T15:49:31.467Z,1.72
2023-02-02T15:51:59.843Z,1.70
2023-02-02T15:54:26.091Z,1.62
2023-02-02T15:56:52.327Z,1.75
2023-02-02T15:59:18.568Z,1.63
2023-02-02T16:01:44.904Z,1.85
2023-02-02T16:04:11.293Z,1.77
2023-02-02T16:06:37.560Z,1.84
2023-02-02T16:09:03.827Z,1.99
2023-02-02T16:11:30.081Z,1.89
2023-02-02T16:13:56.334Z,1.84
2023-02-02T16:16:22.660Z,1.73
2023-02-02T16:18:48.940Z,1.66
2023-02-02T16:21:15.208Z,1.80
2023-02-02T16:23:41.447Z,1.74
2023-02-02T16:26:07.699Z,1.98
2023-02-02T16:28:33.953Z,1.84
2023-02-02T16:31:00.290Z,1.96
2023-02-02T16:33:26.594Z,2.01
2023-02-02T16:35:52.850Z,2.11
2023-02-02T16:38:19.116Z,2.04
2023-02-02T16:40:45.380Z,1.81
2023-02-02T16:43:11.666Z,2.18
2023-02-02T16:45:37.949Z,2.05
2023-02-02T16:48:04.217Z,3.09
2023-02-02T16:50:30.556Z,3.58
2023-02-02T16:52:56.834Z,2.58
2023-02-02T16:55:23.454Z,2.36
2023-02-02T16:57:49.982Z,2.59
2023-02-02T17:00:16.227Z,2.98
2023-02-02T17:02:42.552Z,2.90
2023-02-02T17:05:08.816Z,2.96
2023-02-02T17:07:35.063Z,3.27
2023-02-02T17:10:01.326Z,3.19
2023-02-02T17:12:35.687Z,2.68
2023-02-02T17:15:02.108Z,2.75
2023-02-02T17:17:28.371Z,2.72
2023-02-02T17:19:54.626Z,2.59
2023-02-02T17:22:20.887Z,2.64
2023-02-02T17:24:47.136Z,2.56
2023-02-02T17:27:13.387Z,2.52
2023-02-02T17:29:39.635Z,2.69
2023-02-02T17:32:05.880Z,2.47
2023-02-02T17:34:32.152Z,2.32
2023-02-02T17:36:58.405Z,2.54
2023-02-02T17:39:24.673Z,3.78
2023-02-02T17:41:50.923Z,10.07
2023-02-02T17:44:17.201Z,7.63
2023-02-02T17:46:43.447Z,6.38
2023-02-02T17:49:09.746Z,14.79
2023-02-02T17:51:36.010Z,52.80
2023-02-02T17:54:02.292Z,84.64
2023-02-02T17:56:28.571Z,79.05
2023-02-02T17:58:54.857Z,94.47
2023-02-02T18:01:21.195Z,85.05
2023-02-02T18:03:47.498Z,93.60
2023-02-02T18:06:13.779Z,117.27
2023-02-02T18:08:40.045Z,58.55
2023-02-02T18:11:06.301Z,32.51
2023-02-02T18:13:32.572Z,7.70
2023-02-02T18:15:58.918Z,3.70
2023-02-02T18:18:25.231Z,3.22
2023-02-02T18:20:51.528Z,4.74
2023-02-02T18:23:17.838Z,6.33
2023-02-02T18:25:44.096Z,3.33
2023-02-02T18:28:10.411Z,2.75
2023-02-02T18:30:36.684Z,2.77
2023-02-02T18:33:02.949Z,2.79
2023-02-02T18:35:29.205Z,3.93
2023-02-02T18:37:55.444Z,5.24
2023-02-02T18:40:21.682Z,4.69
2023-02-02T18:42:47.946Z,4.90
2023-02-02T18:45:14.205Z,6.71
2023-02-02T18:47:41.524Z,7.16
2023-02-02T18:50:07.929Z,22.44
2023-02-02T18:52:34.189Z,47.80
2023-02-02T18:55:00.441Z,23.77
2023-02-02T18:57:26.697Z,16.85
2023-02-02T18:59:53.046Z,11.32
2023-02-02T19:02:19.394Z,7.46
2023-02-02T19:04:45.654Z,8.75
2023-02-02T19:07:11.912Z,14.68
2023-02-02T19:09:38.163Z,17.32
2023-02-02T19:12:04.417Z,11.57
2023-02-02T19:14:30.677Z,13.13
2023-02-02T19:16:56.926Z,12.43
2023-02-02T19:19:23.190Z,11.40
2023-02-02T19:21:49.445Z,22.04
2023-02-02T19:24:15.705Z,31.26
2023-02-02T19:26:41.993Z,16.31
2023-02-02T19:29:08.271Z,21.59
2023-02-02T19:31:34.552Z,9.95
2023-02-02T19:34:00.873Z,8.29
2023-02-02T19:36:27.127Z,7.86
2023-02-02T19:38:53.402Z,4.38
2023-02-02T19:41:19.672Z,3.07
2023-02-02T19:43:45.917Z,2.94
2023-02-02T19:46:12.174Z,2.79
2023-02-02T19:48:38.417Z,2.83
2023-02-02T19:51:04.657Z,2.56
2023-02-02T19:53:30.911Z,2.35
2023-02-02T19:55:57.165Z,2.25
2023-02-02T19:58:23.409Z,2.23
2023-02-02T20:00:49.705Z,2.22
2023-02-02T20:03:16.029Z,2.55
2023-02-02T20:05:42.303Z,2.76
2023-02-02T20:08:08.608Z,2.46
2023-02-02T20:10:34.863Z,2.48
2023-02-02T20:13:01.120Z,2.17
2023-02-02T20:15:27.677Z,2.43
2023-02-02T20:17:54.149Z,2.38
2023-02-02T20:20:20.392Z,2.26
2023-02-02T20:22:46.631Z,2.22
2023-02-02T20:25:12.908Z,2.24
2023-02-02T20:27:39.272Z,2.56
2023-02-02T20:30:05.546Z,2.31
2023-02-02T20:32:31.802Z,2.08
2023-02-02T20:34:58.048Z,1.97
2023-02-02T20:37:24.384Z,2.19
2023-02-02T20:39:50.636Z,1.99
2023-02-02T20:42:16.879Z,2.16
2023-02-02T20:44:43.140Z,2.05
2023-02-02T20:47:09.385Z,1.84
2023-02-02T20:49:35.652Z,1.97
2023-02-02T20:52:01.938Z,1.92
2023-02-02T20:54:28.231Z,1.92
2023-02-02T20:56:54.494Z,1.87
2023-02-02T20:59:20.766Z,1.94
2023-02-02T21:01:47.015Z,1.90
2023-02-02T21:04:13.271Z,1.90
2023-02-02T21:06:39.524Z,2.06
2023-02-02T21:09:05.780Z,2.06
2023-02-02T21:11:32.013Z,1.91
2023-02-02T21:13:58.280Z,1.97
2023-02-02T21:16:24.555Z,2.07
2023-02-02T21:18:50.805Z,1.94
2023-02-02T21:21:17.141Z,2.19
2023-02-02T21:23:43.413Z,2.15
2023-02-02T21:26:09.648Z,2.18
2023-02-02T21:28:35.899Z,2.30
2023-02-02T21:31:02.328Z,2.23
2023-02-02T21:33:28.704Z,2.38
2023-02-02T21:35:54.950Z,2.40
2023-02-02T21:38:21.190Z,2.63
2023-02-02T21:40:47.505Z,2.31
2023-02-02T21:43:13.806Z,2.42
2023-02-02T21:45:40.069Z,2.27
2023-02-02T21:48:06.363Z,2.39
2023-02-02T21:50:32.611Z,2.22
2023-02-02T21:52:58.868Z,2.21
2023-02-02T21:55:25.137Z,2.41
2023-02-02T21:57:51.396Z,2.17
2023-02-02T22:00:17.638Z,2.23
2023-02-02T22:02:45.162Z,2.34
2023-02-02T22:05:11.542Z,2.32
2023-02-02T22:07:37.791Z,2.31
2023-02-02T22:10:04.044Z,2.18
2023-02-02T22:12:30.295Z,2.02
2023-02-02T22:14:56.548Z,2.23
2023-02-02T22:17:22.804Z,2.65
2023-02-02T22:19:49.041Z,2.34
2023-02-02T22:22:15.285Z,2.29
2023-02-02T22:24:41.538Z,2.38
2023-02-02T22:27:07.773Z,2.15
2023-02-02T22:29:34.020Z,2.28
2023-02-02T22:32:00.380Z,2.07
2023-02-02T22:34:26.707Z,2.17
2023-02-02T22:36:53.005Z,1.94
2023-02-02T22:39:19.286Z,2.02
2023-02-02T22:41:45.532Z,2.21
2023-02-02T22:44:11.777Z,2.00
2023-02-02T22:46:38.060Z,2.01
2023-02-02T22:49:04.346Z,2.04
2023-02-02T22:51:30.610Z,2.06
2023-02-02T22:53:56.863Z,1.89
2023-02-02T22:56:23.124Z,1.98
2023-02-02T22:58:49.392Z,1.93
2023-02-02T23:01:15.668Z,1.95
2023-02-02T23:03:41.991Z,1.84
2023-02-02T23:06:08.292Z,2.14
2023-02-02T23:08:34.594Z,1.96
2023-02-02T23:11:01.110Z,2.20
2023-02-02T23:13:27.358Z,2.01
2023-02-02T23:15:53.715Z,1.84
2023-02-02T23:18:19.998Z,1.92
2023-02-02T23:20:46.265Z,2.17
2023-02-02T23:23:12.541Z,2.09
2023-02-02T23:25:38.804Z,2.17
2023-02-02T23:28:05.172Z,2.19
2023-02-02T23:30:31.641Z,1.98
2023-02-02T23:32:57.959Z,2.00
2023-02-02T23:35:24.207Z,2.15
2023-02-02T23:37:50.478Z,1.91
2023-02-02T23:40:16.747Z,1.87
2023-02-02T23:42:43.022Z,1.75
2023-02-02T23:45:09.297Z,2.01
2023-02-02T23:47:35.563Z,1.83
2023-02-02T23:50:01.829Z,2.02
2023-02-02T23:52:28.077Z,1.84
2023-02-02T23:54:54.335Z,2.04
2023-02-02T23:57:20.615Z,2.01
2023-02-02T23:59:46.863Z,1.93
